Enchantment of the Seas — C6FZ7 — position and weather

sailwx.info

Track history (hours):
 
Tides and Currents Weather Stations Pressure Air Temp Water Temp Dewpoint Dewpoint Depression Visibility Wind Speed Wind Dir Waves Ship Positions

Enchantment of the Seas (Bahamas)

Last reported at 2017-Jun-24 03:00 UTC. Time now 2017-Jun-24 05:20 UTC.
Position N 26°24' W 078°54'.

Type: Passenger vessel. MMSI: 311733000.

Wind from 120 at 22 knots

Barometer 1018.6 mb
Air temperature 27.8 ° C
Visibility: greater than 10.8 NM
Dewpoint 24.5 ° C

Date/timePositionNaut miles runAvg speedWind from/ knotsBaromVisibWave heightAir tempDewpointWater temp
2017-Jun-24 03:00N 26°24' W 078°54'3921.3 120 / 221018.610.8 27.824.5
2017-Jun-24 01:09N 26°04' W 079°32'4 9.5
2017-Jun-24 00:42N 26°02' W 079°36'4 9.8
2017-Jun-24 00:17N 26°00' W 079°40'3 9.7
2017-Jun-24 00:00N 25°59' W 079°43'5 9.7
2017-Jun-23 23:30N 25°57' W 079°47'5 9.9
2017-Jun-23 23:00N 25°55' W 079°52'510.0
2017-Jun-23 22:30N 25°52' W 079°57'510.2
2017-Jun-23 22:00N 25°49' W 080°02'510.5
2017-Jun-23 21:30N 25°46' W 080°06'4 7.5
2017-Jun-23 21:00N 25°47' W 080°10'1 1.1
2017-Jun-23 20:28N 25°47' W 080°11'0 0.0
2017-Jun-23 19:58N 25°47' W 080°11'0 0.0
2017-Jun-23 19:28N 25°47' W 080°11'0 0.0
2017-Jun-23 18:58N 25°47' W 080°11'0 0.0
2017-Jun-23 18:28N 25°47' W 080°11'0 0.0
2017-Jun-23 17:58N 25°47' W 080°11'0 0.0
2017-Jun-23 17:28N 25°47' W 080°11'0 0.0
2017-Jun-23 16:58N 25°47' W 080°11'0 0.0
2017-Jun-23 16:28N 25°47' W 080°11'0 0.0
2017-Jun-23 15:58N 25°47' W 080°11'0 0.0
2017-Jun-23 15:28N 25°47' W 080°11'0 0.0
2017-Jun-23 14:58N 25°47' W 080°11'0 0.0
2017-Jun-23 13:55N 25°47' W 080°11'0 0.0
2017-Jun-23 13:28N 25°47' W 080°11'0 0.0
2017-Jun-23 12:58N 25°47' W 080°11'0 0.0
2017-Jun-23 12:25N 25°47' W 080°11'0 0.0
2017-Jun-23 11:58N 25°47' W 080°11'0 0.0
2017-Jun-23 11:28N 25°47' W 080°11'0 0.8
2017-Jun-23 11:01N 25°47' W 080°11'3 6.6
2017-Jun-23 10:31N 25°46' W 080°08'5 9.6
2017-Jun-23 10:01N 25°47' W 080°03'510.5
2017-Jun-23 09:31N 25°45' W 079°57'815.6
2017-Jun-23 09:00N 25°40' W 079°51'815.9
2017-Jun-23 08:30N 25°32' W 079°49'917.0
2017-Jun-23 08:00N 25°23' W 079°52'3222.9
2017-Jun-23 08:00N 25°24' W 079°48'45 2.0 120 / 221015.510.8 27.623.324.0
2017-Jun-22 09:00N 24°48' W 080°18'3118.9 120 / 191016.310.8 27.525.524.0
2017-Jun-22 07:20N 25°15' W 080°01'617.2
2017-Jun-22 07:00N 25°20' W 079°57'917.1
2017-Jun-22 06:30N 25°27' W 079°52'917.5
2017-Jun-22 06:00N 25°33' W 079°45'917.7
2017-Jun-22 05:30N 25°40' W 079°38'918.1
2017-Jun-22 05:00N 25°46' W 079°32'1018.8
2017-Jun-22 04:30N 25°54' W 079°25'124 6.0
2017-Jun-21 08:00N 25°24' W 077°12'8 1.3 120 / 291015.810.8 27.424.524.0
2017-Jun-21 02:00N 25°30' W 077°18'62 3.6 120 / 261016.7 27.824.7
2017-Jun-20 09:00N 26°00' W 078°18'50 8.3 130 / 221016.310.8 27.422.724.0
2017-Jun-20 03:00N 26°12' W 079°12'14 8.9 130 / 241017.410.8 28.025.6
2017-Jun-20 01:26N 26°07' W 079°27'4 9.0
2017-Jun-20 01:01N 26°05' W 079°30'5 9.7
2017-Jun-20 00:30N 26°03' W 079°35'510.1
2017-Jun-20 00:01N 26°00' W 079°40'510.0
2017-Jun-19 23:31N 25°58' W 079°44'5 9.9
2017-Jun-19 23:01N 25°55' W 079°49'5 9.6
2017-Jun-19 22:31N 25°53' W 079°54'5 9.4
2017-Jun-19 22:01N 25°50' W 079°58'5 9.1
2017-Jun-19 21:31N 25°48' W 080°02'5 9.4
2017-Jun-19 21:01N 25°45' W 080°07'4 7.5
2017-Jun-19 20:31N 25°47' W 080°11'0 0.1
2017-Jun-19 19:58N 25°47' W 080°11'0 0.0
2017-Jun-19 19:28N 25°47' W 080°11'0 0.0
2017-Jun-19 18:58N 25°47' W 080°11'0 0.0
2017-Jun-19 18:28N 25°47' W 080°11'0 0.0
2017-Jun-19 17:58N 25°47' W 080°11'0 0.0
2017-Jun-19 17:28N 25°47' W 080°11'0 0.0
2017-Jun-19 16:58N 25°47' W 080°11'0 0.0
2017-Jun-19 16:28N 25°47' W 080°11'0 0.0
2017-Jun-19 15:58N 25°47' W 080°11'0 0.0
2017-Jun-19 15:28N 25°47' W 080°11'0 0.0
2017-Jun-19 14:49N 25°47' W 080°11'0 0.0
2017-Jun-19 14:19N 25°47' W 080°11'0 0.0
2017-Jun-19 13:25N 25°47' W 080°11'0 0.0
2017-Jun-19 12:49N 25°47' W 080°11'0 0.0
2017-Jun-19 12:25N 25°47' W 080°11'0 0.0
2017-Jun-19 11:55N 25°47' W 080°11'0 0.0
2017-Jun-19 11:25N 25°47' W 080°11'0 0.0
2017-Jun-19 10:58N 25°47' W 080°11'1 2.3
2017-Jun-19 10:30N 25°46' W 080°10'4 8.5
2017-Jun-19 10:00N 25°46' W 080°05'5 9.8
2017-Jun-19 09:30N 25°48' W 079°60'611.3
2017-Jun-19 09:00N 25°51' W 079°55'612.2
2017-Jun-19 08:30N 25°54' W 079°49'612.1
2017-Jun-19 08:00N 25°57' W 079°43'3169.7
2017-Jun-19 08:00N 25°54' W 079°42'714.7 130 / 151013.810.8 26.124.024.0
2017-Jun-19 07:30N 25°59' W 079°37'126 5.6
2017-Jun-18 09:00N 25°18' W 077°24'11 2.2 160 / 151014.310.8 26.724.824.0
2017-Jun-18 04:00N 25°18' W 077°12'48 4.8 120 / 161015.2 27.225.7
2017-Jun-17 18:00N 25°48' W 077°54'17 1.9 150 / 141015.2 5.4 29.223.9
2017-Jun-17 09:00N 25°54' W 078°12'69 8.4 130 / 141013.510.8 27.123.924.0
2017-Jun-17 00:50N 26°07' W 079°27'3 8.5
2017-Jun-17 00:25N 26°05' W 079°31'4 9.5
2017-Jun-16 23:59N 26°03' W 079°35'5 9.8
2017-Jun-16 23:31N 26°00' W 079°39'5 9.9
2017-Jun-16 23:01N 25°58' W 079°44'510.0
2017-Jun-16 22:31N 25°55' W 079°48'510.3
2017-Jun-16 22:00N 25°53' W 079°53'510.4
2017-Jun-16 21:31N 25°50' W 079°58'510.3
2017-Jun-16 21:01N 25°47' W 080°03'510.6
2017-Jun-16 20:30N 25°46' W 080°09'2 3.8
2017-Jun-16 19:59N 25°47' W 080°11'0 0.0
2017-Jun-16 19:29N 25°47' W 080°11'0 0.0
2017-Jun-16 18:59N 25°47' W 080°11'0 0.0
2017-Jun-16 18:29N 25°47' W 080°11'0 0.0
2017-Jun-16 17:59N 25°47' W 080°11'0 0.0
2017-Jun-16 17:29N 25°47' W 080°11'0 0.0
2017-Jun-16 16:59N 25°47' W 080°11'0 0.0
2017-Jun-16 16:29N 25°47' W 080°11'0 0.0
2017-Jun-16 15:59N 25°47' W 080°11'0 0.0
2017-Jun-16 15:29N 25°47' W 080°11'0 0.0
2017-Jun-16 14:59N 25°47' W 080°11'0 0.0
2017-Jun-16 14:29N 25°47' W 080°11'0 0.0
2017-Jun-16 13:29N 25°47' W 080°11'0 0.0
2017-Jun-16 12:59N 25°47' W 080°11'0 0.0
2017-Jun-16 12:29N 25°47' W 080°11'0 0.0
2017-Jun-16 11:59N 25°47' W 080°11'0 0.0
2017-Jun-16 11:29N 25°47' W 080°11'0 0.5
2017-Jun-16 11:00N 25°47' W 080°11'2 3.8
2017-Jun-16 10:30N 25°46' W 080°09'5 9.8
2017-Jun-16 10:00N 25°46' W 080°03'5 9.7
2017-Jun-16 09:30N 25°46' W 079°58'612.7
2017-Jun-16 09:00N 25°42' W 079°53'612.5
2017-Jun-16 08:30N 25°36' W 079°49'714.9
2017-Jun-16 08:00N 25°29' W 079°50'6345.4
2017-Jun-16 08:00N 25°24' W 079°48'4 8.9 070 / 71014.810.8 26.022.224.0
2017-Jun-16 07:30N 25°22' W 079°52'76 3.4
2017-Jun-15 09:00N 24°30' W 080°54'6315.9 130 / 111015.510.8 27.224.225.0
2017-Jun-15 05:03N 25°13' W 080°04'116.0
2017-Jun-15 05:00N 25°13' W 080°03'815.7
2017-Jun-15 04:30N 25°19' W 079°58'815.7
2017-Jun-15 04:00N 25°25' W 079°52'815.3
2017-Jun-15 03:30N 25°31' W 079°46'816.7
2017-Jun-15 03:00N 25°37' W 079°40'918.4
2017-Jun-15 02:30N 25°44' W 079°34'1018.5
2017-Jun-15 01:59N 25°52' W 079°27'3316.6
2017-Jun-15 00:00N 26°06' W 078°54'57 6.3 120 / 81017.2 5.4 28.024.6
2017-Jun-14 15:00N 25°48' W 077°54'22 3.7 110 / 171019.410.8 28.123.7
2017-Jun-14 09:00N 25°42' W 077°30'   100 / 141016.310.8 26.925.025.0
Track history (hours):
 
Tides and Currents Weather Stations Pressure Air Temp Water Temp Dewpoint Dewpoint Depression Visibility Wind Speed Wind Dir Waves Ship Positions

Enchantment of the Seas (Bahamas)

Last reported at 2017-Jun-24 03:00 UTC. Time now 2017-Jun-24 05:20 UTC.
Position N 26°24' W 078°54'.

Type: Passenger vessel. MMSI: 311733000.

Wind from 120 at 22 knots

Barometer 1018.6 mb
Air temperature 27.8 ° C
Visibility: greater than 10.8 NM
Dewpoint 24.5 ° C

Date/timePositionNaut miles runAvg speedWind from/ knotsBaromVisibWave heightAir tempDewpointWater temp
2017-Jun-24 03:00N 26°24' W 078°54'3921.3 120 / 221018.610.8 27.824.5
2017-Jun-24 01:09N 26°04' W 079°32'4 9.5
2017-Jun-24 00:42N 26°02' W 079°36'4 9.8
2017-Jun-24 00:17N 26°00' W 079°40'3 9.7
2017-Jun-24 00:00N 25°59' W 079°43'5 9.7
2017-Jun-23 23:30N 25°57' W 079°47'5 9.9
2017-Jun-23 23:00N 25°55' W 079°52'510.0
2017-Jun-23 22:30N 25°52' W 079°57'510.2
2017-Jun-23 22:00N 25°49' W 080°02'510.5
2017-Jun-23 21:30N 25°46' W 080°06'4 7.5
2017-Jun-23 21:00N 25°47' W 080°10'1 1.1
2017-Jun-23 20:28N 25°47' W 080°11'0 0.0
2017-Jun-23 19:58N 25°47' W 080°11'0 0.0
2017-Jun-23 19:28N 25°47' W 080°11'0 0.0
2017-Jun-23 18:58N 25°47' W 080°11'0 0.0
2017-Jun-23 18:28N 25°47' W 080°11'0 0.0
2017-Jun-23 17:58N 25°47' W 080°11'0 0.0
2017-Jun-23 17:28N 25°47' W 080°11'0 0.0
2017-Jun-23 16:58N 25°47' W 080°11'0 0.0
2017-Jun-23 16:28N 25°47' W 080°11'0 0.0
2017-Jun-23 15:58N 25°47' W 080°11'0 0.0
2017-Jun-23 15:28N 25°47' W 080°11'0 0.0
2017-Jun-23 14:58N 25°47' W 080°11'0 0.0
2017-Jun-23 13:55N 25°47' W 080°11'0 0.0
2017-Jun-23 13:28N 25°47' W 080°11'0 0.0
2017-Jun-23 12:58N 25°47' W 080°11'0 0.0
2017-Jun-23 12:25N 25°47' W 080°11'0 0.0
2017-Jun-23 11:58N 25°47' W 080°11'0 0.0
2017-Jun-23 11:28N 25°47' W 080°11'0 0.8
2017-Jun-23 11:01N 25°47' W 080°11'3 6.6
2017-Jun-23 10:31N 25°46' W 080°08'5 9.6
2017-Jun-23 10:01N 25°47' W 080°03'510.5
2017-Jun-23 09:31N 25°45' W 079°57'815.6
2017-Jun-23 09:00N 25°40' W 079°51'815.9
2017-Jun-23 08:30N 25°32' W 079°49'917.0
2017-Jun-23 08:00N 25°23' W 079°52'3222.9
2017-Jun-23 08:00N 25°24' W 079°48'45 2.0 120 / 221015.510.8 27.623.324.0
2017-Jun-22 09:00N 24°48' W 080°18'3118.9 120 / 191016.310.8 27.525.524.0
2017-Jun-22 07:20N 25°15' W 080°01'617.2
2017-Jun-22 07:00N 25°20' W 079°57'917.1
2017-Jun-22 06:30N 25°27' W 079°52'917.5
2017-Jun-22 06:00N 25°33' W 079°45'917.7
2017-Jun-22 05:30N 25°40' W 079°38'918.1
2017-Jun-22 05:00N 25°46' W 079°32'1018.8
2017-Jun-22 04:30N 25°54' W 079°25'124 6.0
2017-Jun-21 08:00N 25°24' W 077°12'8 1.3 120 / 291015.810.8 27.424.524.0
2017-Jun-21 02:00N 25°30' W 077°18'62 3.6 120 / 261016.7 27.824.7
2017-Jun-20 09:00N 26°00' W 078°18'50 8.3 130 / 221016.310.8 27.422.724.0
2017-Jun-20 03:00N 26°12' W 079°12'14 8.9 130 / 241017.410.8 28.025.6
2017-Jun-20 01:26N 26°07' W 079°27'4 9.0
2017-Jun-20 01:01N 26°05' W 079°30'5 9.7
2017-Jun-20 00:30N 26°03' W 079°35'510.1
2017-Jun-20 00:01N 26°00' W 079°40'510.0
2017-Jun-19 23:31N 25°58' W 079°44'5 9.9
2017-Jun-19 23:01N 25°55' W 079°49'5 9.6
2017-Jun-19 22:31N 25°53' W 079°54'5 9.4
2017-Jun-19 22:01N 25°50' W 079°58'5 9.1
2017-Jun-19 21:31N 25°48' W 080°02'5 9.4
2017-Jun-19 21:01N 25°45' W 080°07'4 7.5
2017-Jun-19 20:31N 25°47' W 080°11'0 0.1
2017-Jun-19 19:58N 25°47' W 080°11'0 0.0
2017-Jun-19 19:28N 25°47' W 080°11'0 0.0
2017-Jun-19 18:58N 25°47' W 080°11'0 0.0
2017-Jun-19 18:28N 25°47' W 080°11'0 0.0
2017-Jun-19 17:58N 25°47' W 080°11'0 0.0
2017-Jun-19 17:28N 25°47' W 080°11'0 0.0
2017-Jun-19 16:58N 25°47' W 080°11'0 0.0
2017-Jun-19 16:28N 25°47' W 080°11'0 0.0
2017-Jun-19 15:58N 25°47' W 080°11'0 0.0
2017-Jun-19 15:28N 25°47' W 080°11'0 0.0
2017-Jun-19 14:49N 25°47' W 080°11'0 0.0
2017-Jun-19 14:19N 25°47' W 080°11'0 0.0
2017-Jun-19 13:25N 25°47' W 080°11'0 0.0
2017-Jun-19 12:49N 25°47' W 080°11'0 0.0
2017-Jun-19 12:25N 25°47' W 080°11'0 0.0
2017-Jun-19 11:55N 25°47' W 080°11'0 0.0
2017-Jun-19 11:25N 25°47' W 080°11'0 0.0
2017-Jun-19 10:58N 25°47' W 080°11'1 2.3
2017-Jun-19 10:30N 25°46' W 080°10'4 8.5
2017-Jun-19 10:00N 25°46' W 080°05'5 9.8
2017-Jun-19 09:30N 25°48' W 079°60'611.3
2017-Jun-19 09:00N 25°51' W 079°55'612.2
2017-Jun-19 08:30N 25°54' W 079°49'612.1
2017-Jun-19 08:00N 25°57' W 079°43'3169.7
2017-Jun-19 08:00N 25°54' W 079°42'714.7 130 / 151013.810.8 26.124.024.0
2017-Jun-19 07:30N 25°59' W 079°37'126 5.6
2017-Jun-18 09:00N 25°18' W 077°24'11 2.2 160 / 151014.310.8 26.724.824.0
2017-Jun-18 04:00N 25°18' W 077°12'48 4.8 120 / 161015.2 27.225.7
2017-Jun-17 18:00N 25°48' W 077°54'17 1.9 150 / 141015.2 5.4 29.223.9
2017-Jun-17 09:00N 25°54' W 078°12'69 8.4 130 / 141013.510.8 27.123.924.0
2017-Jun-17 00:50N 26°07' W 079°27'3 8.5
2017-Jun-17 00:25N 26°05' W 079°31'4 9.5
2017-Jun-16 23:59N 26°03' W 079°35'5 9.8
2017-Jun-16 23:31N 26°00' W 079°39'5 9.9
2017-Jun-16 23:01N 25°58' W 079°44'510.0
2017-Jun-16 22:31N 25°55' W 079°48'510.3
2017-Jun-16 22:00N 25°53' W 079°53'510.4
2017-Jun-16 21:31N 25°50' W 079°58'510.3
2017-Jun-16 21:01N 25°47' W 080°03'510.6
2017-Jun-16 20:30N 25°46' W 080°09'2 3.8
2017-Jun-16 19:59N 25°47' W 080°11'0 0.0
2017-Jun-16 19:29N 25°47' W 080°11'0 0.0
2017-Jun-16 18:59N 25°47' W 080°11'0 0.0
2017-Jun-16 18:29N 25°47' W 080°11'0 0.0
2017-Jun-16 17:59N 25°47' W 080°11'0 0.0
2017-Jun-16 17:29N 25°47' W 080°11'0 0.0
2017-Jun-16 16:59N 25°47' W 080°11'0 0.0
2017-Jun-16 16:29N 25°47' W 080°11'0 0.0
2017-Jun-16 15:59N 25°47' W 080°11'0 0.0
2017-Jun-16 15:29N 25°47' W 080°11'0 0.0
2017-Jun-16 14:59N 25°47' W 080°11'0 0.0
2017-Jun-16 14:29N 25°47' W 080°11'0 0.0
2017-Jun-16 13:29N 25°47' W 080°11'0 0.0
2017-Jun-16 12:59N 25°47' W 080°11'0 0.0
2017-Jun-16 12:29N 25°47' W 080°11'0 0.0
2017-Jun-16 11:59N 25°47' W 080°11'0 0.0
2017-Jun-16 11:29N 25°47' W 080°11'0 0.5
2017-Jun-16 11:00N 25°47' W 080°11'2 3.8
2017-Jun-16 10:30N 25°46' W 080°09'5 9.8
2017-Jun-16 10:00N 25°46' W 080°03'5 9.7
2017-Jun-16 09:30N 25°46' W 079°58'612.7
2017-Jun-16 09:00N 25°42' W 079°53'612.5
2017-Jun-16 08:30N 25°36' W 079°49'714.9
2017-Jun-16 08:00N 25°29' W 079°50'6345.4
2017-Jun-16 08:00N 25°24' W 079°48'4 8.9 070 / 71014.810.8 26.022.224.0
2017-Jun-16 07:30N 25°22' W 079°52'76 3.4
2017-Jun-15 09:00N 24°30' W 080°54'6315.9 130 / 111015.510.8 27.224.225.0
2017-Jun-15 05:03N 25°13' W 080°04'116.0
2017-Jun-15 05:00N 25°13' W 080°03'815.7
2017-Jun-15 04:30N 25°19' W 079°58'815.7
2017-Jun-15 04:00N 25°25' W 079°52'815.3
2017-Jun-15 03:30N 25°31' W 079°46'816.7
2017-Jun-15 03:00N 25°37' W 079°40'918.4
2017-Jun-15 02:30N 25°44' W 079°34'1018.5
2017-Jun-15 01:59N 25°52' W 079°27'3316.6
2017-Jun-15 00:00N 26°06' W 078°54'57 6.3 120 / 81017.2 5.4 28.024.6
2017-Jun-14 15:00N 25°48' W 077°54'22 3.7 110 / 171019.410.8 28.123.7
2017-Jun-14 09:00N 25°42' W 077°30'   100 / 141016.310.8 26.925.025.0

Dump ship's entire track history